createdAt,value
2018-04-26T00:01:44.579Z,62.48
2018-04-26T00:04:13.118Z,63.50
2018-04-26T00:06:41.522Z,64.07
2018-04-26T00:09:09.953Z,64.35
2018-04-26T00:11:38.379Z,64.71
2018-04-26T00:14:06.784Z,64.99
2018-04-26T00:16:35.226Z,65.46
2018-04-26T00:19:03.688Z,65.51
2018-04-26T00:21:32.095Z,65.82
2018-04-26T00:24:00.587Z,66.45
2018-04-26T00:26:28.999Z,68.01
2018-04-26T00:28:57.436Z,68.40
2018-04-26T00:31:25.830Z,69.16
2018-04-26T00:33:55.968Z,68.09
2018-04-26T00:36:24.695Z,68.51
2018-04-26T00:38:53.199Z,68.28
2018-04-26T00:41:21.624Z,69.57
2018-04-26T00:43:50.335Z,69.93
2018-04-26T00:46:18.739Z,69.47
2018-04-26T00:48:47.132Z,70.16
2018-04-26T00:51:15.586Z,69.59
2018-04-26T00:53:43.992Z,70.27
2018-04-26T00:56:12.736Z,69.53
2018-04-26T00:58:41.152Z,68.88
2018-04-26T01:01:09.599Z,69.42
2018-04-26T01:03:38.045Z,69.36
2018-04-26T01:06:06.510Z,68.80
2018-04-26T01:08:34.931Z,68.74
2018-04-26T01:11:03.380Z,68.90
2018-04-26T01:13:31.900Z,69.15
2018-04-26T01:16:00.315Z,68.94
2018-04-26T01:18:30.755Z,69.41
2018-04-26T01:21:01.246Z,69.99
2018-04-26T01:23:29.674Z,69.00
2018-04-26T01:25:58.079Z,68.71
2018-04-26T01:28:26.526Z,69.08
2018-04-26T01:30:55.091Z,68.37
2018-04-26T01:33:23.505Z,68.17
2018-04-26T01:35:51.912Z,67.67
2018-04-26T01:38:22.487Z,67.37
2018-04-26T01:40:53.056Z,67.79
2018-04-26T01:43:21.483Z,67.49
2018-04-26T01:45:49.919Z,68.80
2018-04-26T01:48:20.499Z,69.28
2018-04-26T01:50:49.238Z,69.21
2018-04-26T01:53:17.643Z,69.13
2018-04-26T01:55:46.066Z,69.45
2018-04-26T01:58:14.536Z,69.91
2018-04-26T02:00:45.120Z,71.15
2018-04-26T02:03:15.760Z,71.36
2018-04-26T02:05:46.296Z,71.27
2018-04-26T02:08:14.712Z,71.65
2018-04-26T02:10:43.175Z,71.36
2018-04-26T02:13:13.603Z,71.75
2018-04-26T02:15:42.331Z,71.45
2018-04-26T02:18:10.754Z,71.76
2018-04-26T02:20:39.242Z,72.21
2018-04-26T02:23:09.996Z,71.82
2018-04-26T02:25:40.252Z,72.21
2018-04-26T02:28:11.101Z,72.37
2018-04-26T02:30:39.516Z,71.83
2018-04-26T02:33:07.915Z,72.37
2018-04-26T02:35:36.640Z,71.92
2018-04-26T02:38:05.058Z,71.82
2018-04-26T02:40:33.487Z,72.27
2018-04-26T02:43:04.124Z,71.66
2018-04-26T02:45:32.614Z,71.50
2018-04-26T02:48:01.119Z,71.51
2018-04-26T02:50:29.535Z,72.37
2018-04-26T02:52:58.143Z,72.25
2018-04-26T02:55:26.563Z,72.16
2018-04-26T02:57:54.965Z,72.44
2018-04-26T03:00:23.408Z,72.50
2018-04-26T03:02:54.014Z,72.81
2018-04-26T03:05:22.547Z,72.68
2018-04-26T03:07:50.972Z,72.95
2018-04-26T03:10:19.427Z,72.37
2018-04-26T03:12:47.939Z,72.28
2018-04-26T03:15:19.528Z,72.59
2018-04-26T03:17:50.033Z,72.54
2018-04-26T03:20:18.445Z,71.90
2018-04-26T03:22:46.851Z,71.56
2018-04-26T03:25:17.403Z,71.37
2018-04-26T03:27:47.672Z,72.13
2018-04-26T03:30:20.193Z,72.20
2018-04-26T03:32:48.613Z,71.88
2018-04-26T03:35:17.063Z,72.44
2018-04-26T03:37:45.835Z,72.22
2018-04-26T03:40:14.244Z,72.59
2018-04-26T03:42:42.651Z,72.79
2018-04-26T03:45:11.134Z,72.83
2018-04-26T03:47:39.571Z,72.33
2018-04-26T03:50:10.095Z,72.43
2018-04-26T03:52:40.210Z,71.89
2018-04-26T03:55:08.611Z,72.23
2018-04-26T03:57:37.019Z,72.22
2018-04-26T04:00:11.618Z,69.96
2018-04-26T04:02:45.992Z,70.11
2018-04-26T04:05:15.444Z,70.08
2018-04-26T04:07:43.861Z,70.76
2018-04-26T04:10:12.312Z,71.45
2018-04-26T04:12:41.069Z,71.36
2018-04-26T04:15:09.498Z,71.35
2018-04-26T04:17:40.111Z,71.32
2018-04-26T04:20:10.686Z,71.34
2018-04-26T04:22:41.240Z,70.47
2018-04-26T04:25:09.668Z,70.46
2018-04-26T04:27:38.079Z,70.55
2018-04-26T04:30:06.798Z,70.35
2018-04-26T04:32:35.333Z,70.35
2018-04-26T04:35:03.763Z,70.78
2018-04-26T04:37:33.101Z,70.40
2018-04-26T04:40:01.810Z,70.61
2018-04-26T04:42:30.252Z,70.55
2018-04-26T04:44:58.727Z,70.07
2018-04-26T04:47:29.403Z,70.75
2018-04-26T04:49:57.815Z,69.95
2018-04-26T04:52:28.427Z,69.74
2018-04-26T04:54:59.083Z,69.40
2018-04-26T04:57:27.503Z,69.71
2018-04-26T04:59:55.908Z,69.99
2018-04-26T05:02:26.096Z,70.35
2018-04-26T05:04:54.570Z,70.24
2018-04-26T05:07:23.074Z,69.17
2018-04-26T05:09:51.536Z,68.09
2018-04-26T05:12:20.260Z,68.17
2018-04-26T05:14:50.764Z,67.51
2018-04-26T05:17:19.275Z,67.54
2018-04-26T05:19:47.771Z,66.62
2018-04-26T05:22:20.090Z,65.80
2018-04-26T05:24:48.507Z,65.39
2018-04-26T05:27:20.763Z,63.33
2018-04-26T05:29:49.171Z,62.64
2018-04-26T05:32:17.583Z,62.27
2018-04-26T05:34:49.743Z,61.72
2018-04-26T05:37:19.803Z,60.93
2018-04-26T05:39:48.217Z,59.95
2018-04-26T05:42:16.659Z,59.23
2018-04-26T05:44:45.076Z,59.25
2018-04-26T05:47:13.835Z,57.74
2018-04-26T05:49:42.212Z,58.63
2018-04-26T05:52:12.668Z,57.90
2018-04-26T05:54:41.094Z,56.86
2018-04-26T05:57:09.508Z,56.17
2018-04-26T05:59:38.188Z,55.00
2018-04-26T06:02:06.639Z,54.83
2018-04-26T06:04:35.056Z,54.27
2018-04-26T06:07:05.310Z,53.20
2018-04-26T06:09:33.688Z,53.17
2018-04-26T06:12:02.048Z,53.42
2018-04-26T06:14:30.819Z,52.34
2018-04-26T06:16:59.364Z,51.13
2018-04-26T06:19:31.403Z,50.10
2018-04-26T06:21:59.845Z,50.06
2018-04-26T06:24:28.238Z,50.58
2018-04-26T06:26:56.706Z,49.11
2018-04-26T06:29:25.116Z,48.61
2018-04-26T06:31:55.083Z,48.23
2018-04-26T06:34:23.501Z,47.64
2018-04-26T06:36:52.260Z,48.83
2018-04-26T06:39:22.771Z,50.08
2018-04-26T06:41:51.191Z,50.43
2018-04-26T06:44:19.609Z,50.79
2018-04-26T06:46:48.038Z,50.88
2018-04-26T06:49:16.491Z,48.58
2018-04-26T06:51:44.895Z,47.69
2018-04-26T06:54:13.343Z,46.87
2018-04-26T06:56:41.992Z,46.62
2018-04-26T06:59:10.407Z,48.20
2018-04-26T07:01:38.814Z,47.50
2018-04-26T07:04:07.212Z,46.30
2018-04-26T07:06:35.728Z,46.85
2018-04-26T07:09:04.445Z,47.77
2018-04-26T07:11:32.929Z,47.74
2018-04-26T07:14:01.312Z,48.35
2018-04-26T07:16:29.763Z,47.80
2018-04-26T07:18:58.238Z,46.73
2018-04-26T07:21:26.623Z,45.28
2018-04-26T07:23:55.051Z,44.58
2018-04-26T07:26:23.563Z,44.79
2018-04-26T07:28:52.004Z,44.57
2018-04-26T07:31:20.455Z,46.46
2018-04-26T07:33:48.843Z,47.13
2018-04-26T07:36:17.311Z,47.48
2018-04-26T07:38:45.736Z,46.53
2018-04-26T07:41:15.718Z,47.06
2018-04-26T07:43:44.139Z,47.79
2018-04-26T07:46:12.546Z,48.77
2018-04-26T07:48:40.980Z,48.68
2018-04-26T07:51:09.363Z,47.63
2018-04-26T07:53:37.759Z,46.92
2018-04-26T07:56:06.267Z,46.29
2018-04-26T07:58:34.666Z,46.60
2018-04-26T08:01:03.188Z,45.77
2018-04-26T08:03:31.624Z,46.09
2018-04-26T08:06:00.444Z,46.95
2018-04-26T08:08:28.951Z,46.65
2018-04-26T08:10:57.435Z,44.83
2018-04-26T08:13:25.917Z,40.03
2018-04-26T08:15:54.433Z,38.90
2018-04-26T08:18:22.819Z,37.60
2018-04-26T08:20:51.250Z,33.40
2018-04-26T08:23:19.636Z,33.42
2018-04-26T08:25:48.092Z,35.08
2018-04-26T08:28:22.579Z,37.35
2018-04-26T08:30:51.013Z,38.85
2018-04-26T08:33:21.415Z,41.41
2018-04-26T08:35:49.920Z,41.55
2018-04-26T08:38:19.903Z,43.19
2018-04-26T08:40:48.376Z,42.76
2018-04-26T08:43:16.798Z,44.48
2018-04-26T08:45:47.318Z,45.33
2018-04-26T08:48:20.190Z,44.73
2018-04-26T08:50:48.623Z,44.11
2018-04-26T08:53:17.051Z,44.03
2018-04-26T08:55:45.489Z,43.59
2018-04-26T08:58:15.252Z,41.83
2018-04-26T09:00:43.690Z,38.46
2018-04-26T09:03:12.363Z,36.89
2018-04-26T09:05:43.015Z,36.95
2018-04-26T09:08:11.483Z,36.55
2018-04-26T09:10:45.740Z,36.56
2018-04-26T09:13:14.243Z,37.77
2018-04-26T09:15:42.706Z,39.28
2018-04-26T09:18:11.098Z,40.55
2018-04-26T09:20:41.034Z,41.23
2018-04-26T09:23:11.460Z,40.23
2018-04-26T09:25:39.903Z,39.43
2018-04-26T09:28:08.374Z,39.11
2018-04-26T09:30:36.770Z,39.20
2018-04-26T09:33:07.245Z,38.21
2018-04-26T09:35:37.791Z,39.37
2018-04-26T09:38:08.387Z,40.38
2018-04-26T09:40:36.819Z,40.57
2018-04-26T09:43:05.296Z,39.82
2018-04-26T09:45:35.179Z,40.05
2018-04-26T09:48:05.755Z,39.70
2018-04-26T09:50:34.201Z,40.31
2018-04-26T09:53:02.598Z,39.80
2018-04-26T09:55:31.072Z,37.22
2018-04-26T09:57:59.527Z,38.18
2018-04-26T10:00:27.947Z,39.47
2018-04-26T10:02:56.415Z,38.98
2018-04-26T10:05:30.989Z,39.36
2018-04-26T10:07:59.413Z,37.82
2018-04-26T10:10:29.807Z,37.52
2018-04-26T10:12:58.281Z,36.33
2018-04-26T10:15:26.719Z,36.88
2018-04-26T10:17:55.141Z,35.89
2018-04-26T10:20:23.590Z,36.69
2018-04-26T10:22:51.991Z,34.98
2018-04-26T10:25:20.418Z,35.71
2018-04-26T10:27:48.944Z,35.58
2018-04-26T10:30:17.372Z,35.45
2018-04-26T10:32:45.842Z,35.54
2018-04-26T10:35:16.339Z,36.02
2018-04-26T10:37:44.791Z,37.38
2018-04-26T10:40:13.195Z,35.50
2018-04-26T10:42:41.621Z,34.41
2018-04-26T10:45:10.031Z,34.64
2018-04-26T10:47:38.498Z,31.97
2018-04-26T10:50:06.940Z,32.10
2018-04-26T10:52:35.358Z,32.01
2018-04-26T10:55:03.747Z,31.81
2018-04-26T10:57:32.202Z,30.74
2018-04-26T11:00:00.646Z,30.31
2018-04-26T11:02:29.084Z,30.19
2018-04-26T11:04:57.548Z,30.00
2018-04-26T11:07:25.953Z,30.41
2018-04-26T11:09:54.364Z,31.07
2018-04-26T11:12:22.783Z,31.22
2018-04-26T11:14:51.195Z,30.58
2018-04-26T11:17:19.801Z,31.71
2018-04-26T11:19:48.160Z,32.87
2018-04-26T11:22:16.615Z,31.92
2018-04-26T11:24:44.986Z,31.84
2018-04-26T11:27:16.726Z,30.35
2018-04-26T11:29:47.779Z,31.27
2018-04-26T11:32:17.524Z,32.08
2018-04-26T11:34:47.368Z,32.22
2018-04-26T11:37:17.796Z,33.01
2018-04-26T11:39:46.252Z,31.58
2018-04-26T11:42:14.726Z,33.78
2018-04-26T11:44:43.167Z,34.42
2018-04-26T11:47:11.604Z,34.59
2018-04-26T11:49:42.213Z,34.12
2018-04-26T11:52:10.616Z,33.88
2018-04-26T11:54:39.056Z,34.57
2018-04-26T11:57:08.759Z,34.92
2018-04-26T11:59:37.317Z,34.94
2018-04-26T12:02:05.748Z,34.61
2018-04-26T12:04:35.544Z,33.16
2018-04-26T12:07:05.987Z,32.96
2018-04-26T12:09:34.424Z,32.55
2018-04-26T12:12:02.854Z,31.55
2018-04-26T12:14:35.280Z,32.77
2018-04-26T12:17:05.214Z,33.18
2018-04-26T12:19:33.608Z,33.80
2018-04-26T12:22:04.198Z,34.18
2018-04-26T12:24:34.705Z,30.80
2018-04-26T12:27:06.611Z,32.05
2018-04-26T12:29:35.039Z,32.81
2018-04-26T12:32:03.490Z,33.27
2018-04-26T12:34:35.764Z,33.65
2018-04-26T12:37:04.198Z,33.37
2018-04-26T12:39:32.604Z,33.93
2018-04-26T12:42:01.056Z,34.13
2018-04-26T12:44:33.533Z,33.11
2018-04-26T12:47:01.955Z,33.60
2018-04-26T12:49:30.407Z,34.29
2018-04-26T12:52:00.976Z,33.17
2018-04-26T12:54:29.431Z,33.01
2018-04-26T12:56:57.868Z,32.34
2018-04-26T12:59:26.287Z,32.58
2018-04-26T13:01:55.944Z,32.08
2018-04-26T13:04:24.399Z,32.44
2018-04-26T13:06:56.719Z,31.76
2018-04-26T13:09:25.159Z,32.26
2018-04-26T13:11:57.639Z,33.08
2018-04-26T13:14:28.217Z,33.13
2018-04-26T13:16:56.657Z,32.32
2018-04-26T13:19:29.347Z,32.39
2018-04-26T13:21:57.812Z,33.25
2018-04-26T13:24:26.251Z,31.66
2018-04-26T13:26:54.648Z,30.76
2018-04-26T13:29:25.254Z,30.45
2018-04-26T13:31:53.707Z,30.88
2018-04-26T13:34:24.272Z,30.32
2018-04-26T13:36:54.849Z,31.84
2018-04-26T13:39:25.598Z,31.76
2018-04-26T13:41:54.007Z,33.51
2018-04-26T13:44:22.475Z,32.79
2018-04-26T13:46:51.000Z,32.41
2018-04-26T13:49:20.923Z,32.77
2018-04-26T13:51:51.548Z,33.04
2018-04-26T13:54:20.057Z,33.54
2018-04-26T13:56:50.627Z,33.39
2018-04-26T13:59:19.043Z,31.46
2018-04-26T14:01:47.455Z,32.92
2018-04-26T14:04:17.882Z,32.07
2018-04-26T14:06:46.368Z,31.49
2018-04-26T14:09:21.108Z,31.67
2018-04-26T14:11:49.573Z,33.01
2018-04-26T14:14:18.012Z,32.53
2018-04-26T14:16:48.628Z,33.41
2018-04-26T14:19:17.056Z,33.79
2018-04-26T14:21:46.799Z,33.82
2018-04-26T14:24:15.265Z,31.87
2018-04-26T14:26:43.687Z,31.67
2018-04-26T14:29:12.164Z,32.80
2018-04-26T14:31:40.590Z,32.21
2018-04-26T14:34:09.066Z,30.87
2018-04-26T14:36:37.493Z,32.48
2018-04-26T14:39:05.946Z,31.89
2018-04-26T14:41:34.367Z,32.52
2018-04-26T14:44:02.851Z,31.89
2018-04-26T14:46:31.275Z,32.41
2018-04-26T14:48:59.700Z,32.49
2018-04-26T14:51:28.129Z,33.46
2018-04-26T14:54:00.694Z,32.90
2018-04-26T14:56:31.263Z,33.90
2018-04-26T14:58:59.750Z,33.48
2018-04-26T15:01:28.158Z,33.96
2018-04-26T15:03:56.600Z,33.42
2018-04-26T15:06:25.064Z,33.74
2018-04-26T15:08:53.601Z,33.54
2018-04-26T15:11:24.152Z,32.80
2018-04-26T15:13:52.634Z,32.51
2018-04-26T15:16:23.349Z,32.53
2018-04-26T15:18:51.796Z,32.75
2018-04-26T15:21:20.239Z,32.22
2018-04-26T15:23:50.683Z,32.75
2018-04-26T15:26:19.128Z,33.17
2018-04-26T15:28:47.608Z,33.30
2018-04-26T15:31:16.015Z,33.60
2018-04-26T15:33:44.453Z,32.12
2018-04-26T15:36:12.909Z,31.59
2018-04-26T15:38:41.337Z,32.87
2018-04-26T15:41:09.797Z,33.74
2018-04-26T15:43:38.228Z,33.23
2018-04-26T15:46:06.643Z,33.73
2018-04-26T15:48:35.165Z,33.18
2018-04-26T15:51:03.623Z,33.36
2018-04-26T15:53:38.178Z,33.19
2018-04-26T15:56:12.660Z,34.28
2018-04-26T15:59:02.746Z,33.46
2018-04-26T16:15:13.456Z,34.75
2018-04-26T16:18:08.818Z,34.43
2018-04-26T16:20:49.483Z,34.80
2018-04-26T16:23:30.009Z,34.25
2018-04-26T16:26:04.508Z,34.69
2018-04-26T16:28:46.646Z,35.39
2018-04-26T16:31:27.156Z,34.68
2018-04-26T16:34:05.132Z,35.65
2018-04-26T16:36:39.704Z,35.44
2018-04-26T16:39:11.203Z,34.74
2018-04-26T16:41:39.674Z,34.73
2018-04-26T16:44:10.178Z,35.23
2018-04-26T16:46:38.655Z,34.83
2018-04-26T16:49:07.144Z,33.90
2018-04-26T16:51:35.572Z,34.22
2018-04-26T16:54:04.015Z,34.12
2018-04-26T16:56:32.500Z,34.78
2018-04-26T16:59:00.920Z,34.91
2018-04-26T17:01:29.609Z,34.46
2018-04-26T17:03:58.061Z,34.42
2018-04-26T17:06:26.468Z,34.33
2018-04-26T17:08:55.198Z,34.49
2018-04-26T17:11:23.604Z,34.37
2018-04-26T17:13:54.068Z,35.23
2018-04-26T17:16:24.456Z,35.20
2018-04-26T17:18:52.909Z,35.14
2018-04-26T17:21:21.334Z,34.67
2018-04-26T17:23:49.800Z,34.93
2018-04-26T17:26:18.184Z,35.60
2018-04-26T17:28:48.703Z,35.26
2018-04-26T17:31:17.111Z,35.78
2018-04-26T17:33:45.537Z,35.57
2018-04-26T17:36:14.004Z,36.25
2018-04-26T17:38:42.974Z,37.13
2018-04-26T17:41:11.491Z,36.56
2018-04-26T17:43:39.959Z,36.62
2018-04-26T17:46:08.452Z,36.73
2018-04-26T17:48:37.176Z,36.80
2018-04-26T17:51:05.630Z,37.24
2018-04-26T17:53:34.076Z,37.53
2018-04-26T17:56:02.603Z,37.21
2018-04-26T17:58:31.060Z,37.33
2018-04-26T18:00:59.567Z,37.80
2018-04-26T18:03:28.148Z,38.01
2018-04-26T18:05:56.590Z,38.22
2018-04-26T18:08:25.039Z,38.89
2018-04-26T18:10:55.488Z,38.69
2018-04-26T18:13:28.139Z,38.90
2018-04-26T18:15:58.558Z,38.78
2018-04-26T18:18:29.165Z,39.24
2018-04-26T18:20:59.706Z,39.54
2018-04-26T18:23:30.295Z,39.74
2018-04-26T18:25:58.727Z,39.36
2018-04-26T18:28:27.161Z,40.18
2018-04-26T18:30:55.644Z,40.62
2018-04-26T18:33:24.032Z,40.11
2018-04-26T18:35:52.911Z,41.07
2018-04-26T18:38:21.293Z,41.16
2018-04-26T18:40:54.124Z,41.23
2018-04-26T18:43:22.642Z,41.32
2018-04-26T18:45:51.095Z,42.49
2018-04-26T18:48:19.581Z,41.84
2018-04-26T18:50:48.093Z,41.73
2018-04-26T18:53:16.783Z,41.91
2018-04-26T18:55:45.296Z,42.22
2018-04-26T18:58:13.756Z,42.31
2018-04-26T19:00:42.524Z,42.47
2018-04-26T19:03:17.601Z,43.19
2018-04-26T19:05:46.015Z,43.23
2018-04-26T19:08:14.446Z,43.83
2018-04-26T19:10:42.908Z,44.08
2018-04-26T19:13:11.387Z,44.35
2018-04-26T19:15:39.869Z,44.33
2018-04-26T19:18:08.376Z,45.37
2018-04-26T19:20:36.843Z,45.22
2018-04-26T19:23:05.276Z,46.11
2018-04-26T19:25:33.742Z,45.35
2018-04-26T19:28:02.155Z,45.64
2018-04-26T19:30:30.579Z,46.49
2018-04-26T19:32:59.107Z,46.75
2018-04-26T19:35:29.716Z,47.28
2018-04-26T19:37:58.238Z,48.02
2018-04-26T19:40:28.966Z,47.91
2018-04-26T19:42:57.426Z,47.55
2018-04-26T19:45:25.857Z,47.50
2018-04-26T19:47:54.333Z,48.05
2018-04-26T19:50:24.764Z,49.07
2018-04-26T19:52:53.714Z,49.22
2018-04-26T19:55:22.127Z,49.75
2018-04-26T19:57:50.740Z,50.55
2018-04-26T20:00:19.382Z,51.26
2018-04-26T20:02:47.819Z,50.66
2018-04-26T20:05:16.261Z,51.37
2018-04-26T20:07:44.695Z,52.44
2018-04-26T20:10:13.151Z,52.76
2018-04-26T20:12:43.623Z,53.07
2018-04-26T20:15:13.925Z,54.01
2018-04-26T20:17:42.344Z,54.71
2018-04-26T20:20:10.790Z,54.77
2018-04-26T20:22:39.584Z,54.08
2018-04-26T20:25:08.040Z,53.23
2018-04-26T20:27:36.446Z,53.50
2018-04-26T20:30:07.041Z,53.99
2018-04-26T20:32:37.585Z,54.04
2018-04-26T20:35:06.360Z,54.54
2018-04-26T20:37:36.847Z,54.85
2018-04-26T20:40:05.286Z,54.12
2018-04-26T20:42:33.758Z,53.72
2018-04-26T20:45:02.359Z,53.73
2018-04-26T20:47:30.780Z,54.83
2018-04-26T20:49:59.432Z,54.55
2018-04-26T20:52:27.843Z,54.52
2018-04-26T20:54:58.357Z,55.45
2018-04-26T20:57:26.815Z,55.63
2018-04-26T20:59:55.227Z,55.64
2018-04-26T21:02:23.782Z,55.69
2018-04-26T21:04:52.184Z,55.50
2018-04-26T21:07:20.962Z,54.55
2018-04-26T21:09:51.246Z,54.54
2018-04-26T21:12:19.698Z,55.60
2018-04-26T21:14:48.228Z,55.87
2018-04-26T21:17:16.766Z,55.09
2018-04-26T21:19:45.214Z,55.67
2018-04-26T21:22:16.059Z,55.83
2018-04-26T21:24:44.452Z,56.32
2018-04-26T21:27:12.922Z,56.38
2018-04-26T21:29:41.424Z,56.22
2018-04-26T21:32:12.072Z,56.28
2018-04-26T21:34:40.556Z,56.71
2018-04-26T21:37:11.092Z,56.66
2018-04-26T21:39:39.600Z,56.87
2018-04-26T21:42:08.065Z,56.94
2018-04-26T21:44:39.000Z,57.05
2018-04-26T21:47:07.426Z,57.41
2018-04-26T21:49:37.948Z,57.91
2018-04-26T21:52:12.382Z,57.81
2018-04-26T21:54:48.992Z,58.43
2018-04-26T21:57:23.529Z,58.29
2018-04-26T22:00:00.190Z,57.84
2018-04-26T22:02:28.812Z,57.85
2018-04-26T22:05:01.201Z,58.04
2018-04-26T22:07:29.665Z,58.55
2018-04-26T22:10:01.078Z,57.84
2018-04-26T22:12:29.537Z,58.06
2018-04-26T22:14:58.525Z,58.27
2018-04-26T22:17:27.032Z,58.17
2018-04-26T22:19:58.001Z,58.40
2018-04-26T22:22:26.484Z,58.69
2018-04-26T22:24:58.084Z,58.99
2018-04-26T22:27:30.936Z,59.62
2018-04-26T22:29:59.473Z,59.48
2018-04-26T22:32:29.706Z,59.71
2018-04-26T22:34:58.459Z,59.86
2018-04-26T22:37:26.891Z,59.13
2018-04-26T22:39:57.794Z,59.10
2018-04-26T22:42:26.300Z,59.15
2018-04-26T22:44:56.924Z,59.32
2018-04-26T22:47:26.349Z,59.35
2018-04-26T22:49:56.908Z,58.67
2018-04-26T22:52:28.114Z,59.42
2018-04-26T22:54:56.572Z,59.63
2018-04-26T22:57:25.064Z,60.09
2018-04-26T22:59:55.667Z,59.95
2018-04-26T23:02:26.432Z,60.21
2018-04-26T23:04:57.077Z,59.93
2018-04-26T23:07:25.562Z,60.03
2018-04-26T23:09:54.042Z,59.86
2018-04-26T23:12:24.654Z,60.21
2018-04-26T23:14:53.130Z,60.90
2018-04-26T23:17:21.638Z,60.39
2018-04-26T23:19:50.108Z,60.52
2018-04-26T23:22:18.633Z,60.14
2018-04-26T23:24:47.184Z,59.33
2018-04-26T23:27:15.695Z,59.51
2018-04-26T23:29:44.162Z,59.63
2018-04-26T23:32:12.732Z,59.72
2018-04-26T23:34:41.230Z,59.82
2018-04-26T23:37:09.655Z,60.49
2018-04-26T23:39:38.133Z,60.36
2018-04-26T23:42:06.633Z,60.06
2018-04-26T23:44:35.315Z,59.86
2018-04-26T23:47:03.793Z,60.05
2018-04-26T23:49:34.348Z,60.42
2018-04-26T23:52:02.772Z,60.53
2018-04-26T23:54:33.380Z,60.07
2018-04-26T23:57:01.861Z,59.52
2018-04-26T23:59:30.365Z,60.09
